sensor_id;sensor_type;location;lat;lon;timestamp;pressure;altitude;pressure_sealevel;temperature;humidity
53659;BME280;41524;35.624;139.698;2022-12-18T00:00:12;100298.00;;;21.70;23.97
53659;BME280;41524;35.624;139.698;2022-12-18T00:05:11;100301.00;;;18.86;27.26
53659;BME280;41524;35.624;139.698;2022-12-18T00:10:16;100290.00;;;21.22;22.68
53659;BME280;41524;35.624;139.698;2022-12-18T00:15:10;100314.00;;;13.16;30.25
53659;BME280;41524;35.624;139.698;2022-12-18T00:20:21;100310.00;;;11.10;32.90
53659;BME280;41524;35.624;139.698;2022-12-18T00:25:15;100315.00;;;9.16;38.27
53659;BME280;41524;35.624;139.698;2022-12-18T00:30:12;100319.00;;;10.01;38.70
53659;BME280;41524;35.624;139.698;2022-12-18T00:35:11;100326.00;;;8.36;41.63
53659;BME280;41524;35.624;139.698;2022-12-18T00:40:11;100320.00;;;7.70;43.30
53659;BME280;41524;35.624;139.698;2022-12-18T00:45:10;100318.00;;;8.42;42.82
53659;BME280;41524;35.624;139.698;2022-12-18T00:50:12;100311.00;;;9.49;41.12
53659;BME280;41524;35.624;139.698;2022-12-18T00:55:16;100302.00;;;10.53;39.71
53659;BME280;41524;35.624;139.698;2022-12-18T01:00:14;100311.00;;;7.58;42.45
53659;BME280;41524;35.624;139.698;2022-12-18T01:05:11;100305.00;;;9.18;42.73
53659;BME280;41524;35.624;139.698;2022-12-18T01:10:12;100300.00;;;8.72;41.36
53659;BME280;41524;35.624;139.698;2022-12-18T01:15:17;100303.00;;;7.22;43.55
53659;BME280;41524;35.624;139.698;2022-12-18T01:20:16;100293.00;;;10.06;41.21
53659;BME280;41524;35.624;139.698;2022-12-18T01:25:10;100286.00;;;8.94;41.42
53659;BME280;41524;35.624;139.698;2022-12-18T01:30:12;100275.00;;;9.13;41.27
53659;BME280;41524;35.624;139.698;2022-12-18T01:35:12;100265.00;;;10.93;37.69
53659;BME280;41524;35.624;139.698;2022-12-18T01:40:14;100245.00;;;10.26;37.32
53659;BME280;41524;35.624;139.698;2022-12-18T01:45:25;100233.00;;;10.05;37.27
53659;BME280;41524;35.624;139.698;2022-12-18T01:50:14;100218.00;;;12.21;36.25
53659;BME280;41524;35.624;139.698;2022-12-18T01:55:12;100217.00;;;11.44;37.21
53659;BME280;41524;35.624;139.698;2022-12-18T02:00:19;100226.00;;;9.18;38.07
53659;BME280;41524;35.624;139.698;2022-12-18T02:05:21;100206.00;;;10.78;36.63
53659;BME280;41524;35.624;139.698;2022-12-18T02:10:22;100202.00;;;9.66;37.80
53659;BME280;41524;35.624;139.698;2022-12-18T02:15:15;100196.00;;;9.87;37.65
53659;BME280;41524;35.624;139.698;2022-12-18T02:20:16;100185.00;;;11.55;34.97
53659;BME280;41524;35.624;139.698;2022-12-18T02:25:24;100188.00;;;10.65;35.00
53659;BME280;41524;35.624;139.698;2022-12-18T02:30:10;100180.00;;;13.22;31.85
53659;BME280;41524;35.624;139.698;2022-12-18T02:35:19;100163.00;;;13.42;32.02
53659;BME280;41524;35.624;139.698;2022-12-18T02:40:19;100152.00;;;13.25;30.55
53659;BME280;41524;35.624;139.698;2022-12-18T02:45:11;100140.00;;;12.87;24.03
53659;BME280;41524;35.624;139.698;2022-12-18T02:50:16;100132.00;;;11.59;23.05
53659;BME280;41524;35.624;139.698;2022-12-18T02:55:25;100133.00;;;10.67;24.32
53659;BME280;41524;35.624;139.698;2022-12-18T03:00:14;100120.00;;;11.45;25.94
53659;BME280;41524;35.624;139.698;2022-12-18T03:05:14;100126.00;;;10.94;28.60
53659;BME280;41524;35.624;139.698;2022-12-18T03:10:21;100135.00;;;9.62;29.09
53659;BME280;41524;35.624;139.698;2022-12-18T03:15:19;100141.00;;;9.62;29.97
53659;BME280;41524;35.624;139.698;2022-12-18T03:20:19;100134.00;;;8.93;31.25
53659;BME280;41524;35.624;139.698;2022-12-18T03:25:14;100139.00;;;9.40;30.89
53659;BME280;41524;35.624;139.698;2022-12-18T03:30:17;100140.00;;;9.87;34.96
53659;BME280;41524;35.624;139.698;2022-12-18T03:35:19;100126.00;;;11.58;26.48
53659;BME280;41524;35.624;139.698;2022-12-18T03:40:12;100113.00;;;12.92;24.04
53659;BME280;41524;35.624;139.698;2022-12-18T03:45:22;100126.00;;;10.62;24.61
53659;BME280;41524;35.624;139.698;2022-12-18T03:50:18;100123.00;;;22.41;15.40
53659;BME280;41524;35.624;139.698;2022-12-18T03:55:13;100110.00;;;27.62;11.21
53659;BME280;41524;35.624;139.698;2022-12-18T04:00:14;100125.00;;;23.46;12.41
53659;BME280;41524;35.624;139.698;2022-12-18T04:05:11;100120.00;;;20.40;14.30
53659;BME280;41524;35.624;139.698;2022-12-18T04:10:12;100119.00;;;30.01;10.11
53659;BME280;41524;35.624;139.698;2022-12-18T04:15:21;100112.00;;;29.94;9.51
53659;BME280;41524;35.624;139.698;2022-12-18T04:20:11;100116.00;;;27.25;8.88
53659;BME280;41524;35.624;139.698;2022-12-18T04:25:10;100127.00;;;26.63;11.18
53659;BME280;41524;35.624;139.698;2022-12-18T04:30:15;100134.00;;;25.15;8.97
53659;BME280;41524;35.624;139.698;2022-12-18T04:35:11;100129.00;;;25.52;10.92
53659;BME280;41524;35.624;139.698;2022-12-18T04:40:12;100127.00;;;26.78;8.88
53659;BME280;41524;35.624;139.698;2022-12-18T04:45:12;100153.00;;;12.15;16.80
53659;BME280;41524;35.624;139.698;2022-12-18T04:50:11;100159.00;;;10.52;23.54
53659;BME280;41524;35.624;139.698;2022-12-18T04:55:15;100146.00;;;9.93;20.27
53659;BME280;41524;35.624;139.698;2022-12-18T05:00:15;100150.00;;;9.55;15.27
53659;BME280;41524;35.624;139.698;2022-12-18T05:05:11;100165.00;;;8.85;17.21
53659;BME280;41524;35.624;139.698;2022-12-18T05:10:15;100158.00;;;7.85;16.23
53659;BME280;41524;35.624;139.698;2022-12-18T05:15:20;100169.00;;;8.62;15.20
53659;BME280;41524;35.624;139.698;2022-12-18T05:20:14;100171.00;;;8.42;17.56
53659;BME280;41524;35.624;139.698;2022-12-18T05:25:12;100179.00;;;8.28;20.03
53659;BME280;41524;35.624;139.698;2022-12-18T05:30:16;100179.00;;;9.22;15.67
53659;BME280;41524;35.624;139.698;2022-12-18T05:35:21;100197.00;;;8.33;17.44
53659;BME280;41524;35.624;139.698;2022-12-18T05:40:12;100203.00;;;8.77;16.22
53659;BME280;41524;35.624;139.698;2022-12-18T05:45:16;100205.00;;;8.24;16.08
53659;BME280;41524;35.624;139.698;2022-12-18T05:50:15;100213.00;;;8.67;17.22
53659;BME280;41524;35.624;139.698;2022-12-18T05:55:12;100214.00;;;8.69;17.21
53659;BME280;41524;35.624;139.698;2022-12-18T06:00:13;100227.00;;;8.42;17.64
53659;BME280;41524;35.624;139.698;2022-12-18T06:05:13;100241.00;;;9.36;16.59
53659;BME280;41524;35.624;139.698;2022-12-18T06:10:12;100249.00;;;8.18;17.66
53659;BME280;41524;35.624;139.698;2022-12-18T06:15:16;100260.00;;;8.21;17.56
53659;BME280;41524;35.624;139.698;2022-12-18T06:20:11;100269.00;;;8.22;16.65
53659;BME280;41524;35.624;139.698;2022-12-18T06:25:21;100269.00;;;7.85;16.67
53659;BME280;41524;35.624;139.698;2022-12-18T06:30:16;100291.00;;;7.38;17.48
53659;BME280;41524;35.624;139.698;2022-12-18T06:35:10;100301.00;;;8.95;16.61
53659;BME280;41524;35.624;139.698;2022-12-18T06:40:11;100315.00;;;8.64;16.36
53659;BME280;41524;35.624;139.698;2022-12-18T06:45:17;100321.00;;;7.40;16.96
53659;BME280;41524;35.624;139.698;2022-12-18T06:50:12;100318.00;;;8.31;16.32
53659;BME280;41524;35.624;139.698;2022-12-18T06:55:10;100326.00;;;8.80;16.68
53659;BME280;41524;35.624;139.698;2022-12-18T07:00:13;100339.00;;;7.61;18.88
53659;BME280;41524;35.624;139.698;2022-12-18T07:05:11;100338.00;;;7.68;17.00
53659;BME280;41524;35.624;139.698;2022-12-18T07:10:14;100345.00;;;8.11;16.21
53659;BME280;41524;35.624;139.698;2022-12-18T07:15:12;100379.00;;;6.53;16.64
53659;BME280;41524;35.624;139.698;2022-12-18T07:20:11;100382.00;;;6.67;17.30
53659;BME280;41524;35.624;139.698;2022-12-18T07:25:11;100392.00;;;6.74;16.18
53659;BME280;41524;35.624;139.698;2022-12-18T07:30:15;100395.00;;;7.35;17.65
53659;BME280;41524;35.624;139.698;2022-12-18T07:35:11;100408.00;;;6.93;17.07
53659;BME280;41524;35.624;139.698;2022-12-18T07:40:16;100419.00;;;7.36;17.50
53659;BME280;41524;35.624;139.698;2022-12-18T07:45:11;100432.00;;;6.07;16.63
53659;BME280;41524;35.624;139.698;2022-12-18T07:50:16;100429.00;;;7.07;17.24
53659;BME280;41524;35.624;139.698;2022-12-18T07:55:15;100449.00;;;6.82;17.36
53659;BME280;41524;35.624;139.698;2022-12-18T08:00:17;100455.00;;;6.93;17.66
53659;BME280;41524;35.624;139.698;2022-12-18T08:05:13;100469.00;;;7.34;17.46
53659;BME280;41524;35.624;139.698;2022-12-18T08:10:11;100480.00;;;6.06;17.74
53659;BME280;41524;35.624;139.698;2022-12-18T08:15:12;100492.00;;;5.96;17.76
53659;BME280;41524;35.624;139.698;2022-12-18T08:20:16;100505.00;;;5.72;18.17
53659;BME280;41524;35.624;139.698;2022-12-18T08:25:16;100521.00;;;6.51;17.75
53659;BME280;41524;35.624;139.698;2022-12-18T08:30:11;100539.00;;;6.68;17.62
53659;BME280;41524;35.624;139.698;2022-12-18T08:35:22;100549.00;;;6.41;18.55
53659;BME280;41524;35.624;139.698;2022-12-18T08:40:16;100561.00;;;5.82;18.97
53659;BME280;41524;35.624;139.698;2022-12-18T08:45:17;100567.00;;;5.78;17.52
53659;BME280;41524;35.624;139.698;2022-12-18T08:50:11;100570.00;;;6.36;17.68
53659;BME280;41524;35.624;139.698;2022-12-18T08:55:11;100576.00;;;6.30;19.67
53659;BME280;41524;35.624;139.698;2022-12-18T09:00:16;100585.00;;;6.03;19.26
53659;BME280;41524;35.624;139.698;2022-12-18T09:05:15;100595.00;;;5.59;19.09
53659;BME280;41524;35.624;139.698;2022-12-18T09:10:11;100602.00;;;5.26;18.54
53659;BME280;41524;35.624;139.698;2022-12-18T09:15:17;100602.00;;;6.93;17.48
53659;BME280;41524;35.624;139.698;2022-12-18T09:20:17;100612.00;;;5.94;16.13
53659;BME280;41524;35.624;139.698;2022-12-18T09:25:11;100624.00;;;5.36;16.75
53659;BME280;41524;35.624;139.698;2022-12-18T09:30:12;100641.00;;;5.34;17.16
53659;BME280;41524;35.624;139.698;2022-12-18T09:35:11;100634.00;;;6.09;17.77
53659;BME280;41524;35.624;139.698;2022-12-18T09:40:17;100649.00;;;4.68;17.59
53659;BME280;41524;35.624;139.698;2022-12-18T09:45:18;100655.00;;;4.71;17.99
53659;BME280;41524;35.624;139.698;2022-12-18T09:50:23;100672.00;;;4.79;17.69
53659;BME280;41524;35.624;139.698;2022-12-18T09:55:14;100689.00;;;4.98;18.19
53659;BME280;41524;35.624;139.698;2022-12-18T10:00:19;100697.00;;;5.24;18.57
53659;BME280;41524;35.624;139.698;2022-12-18T10:05:14;100713.00;;;4.69;19.07
53659;BME280;41524;35.624;139.698;2022-12-18T10:10:19;100722.00;;;4.33;18.99
53659;BME280;41524;35.624;139.698;2022-12-18T10:15:18;100730.00;;;5.37;18.14
53659;BME280;41524;35.624;139.698;2022-12-18T10:20:19;100747.00;;;5.25;17.52
53659;BME280;41524;35.624;139.698;2022-12-18T10:25:20;100756.00;;;5.20;18.60
53659;BME280;41524;35.624;139.698;2022-12-18T10:30:21;100762.00;;;5.41;18.17
53659;BME280;41524;35.624;139.698;2022-12-18T10:35:19;100775.00;;;4.84;18.91
53659;BME280;41524;35.624;139.698;2022-12-18T10:40:13;100776.00;;;4.97;17.64
53659;BME280;41524;35.624;139.698;2022-12-18T10:45:13;100784.00;;;5.51;18.34
53659;BME280;41524;35.624;139.698;2022-12-18T10:50:22;100789.00;;;4.31;18.14
53659;BME280;41524;35.624;139.698;2022-12-18T10:55:17;100794.00;;;4.41;17.72
53659;BME280;41524;35.624;139.698;2022-12-18T11:00:28;100800.00;;;4.51;16.89
53659;BME280;41524;35.624;139.698;2022-12-18T11:05:31;100802.00;;;3.98;17.13
53659;BME280;41524;35.624;139.698;2022-12-18T11:10:17;100801.00;;;3.91;17.85
53659;BME280;41524;35.624;139.698;2022-12-18T11:15:18;100801.00;;;3.79;17.06
53659;BME280;41524;35.624;139.698;2022-12-18T11:20:29;100800.00;;;3.91;17.52
53659;BME280;41524;35.624;139.698;2022-12-18T11:25:20;100802.00;;;3.34;17.26
53659;BME280;41524;35.624;139.698;2022-12-18T11:30:22;100794.00;;;3.07;17.33
53659;BME280;41524;35.624;139.698;2022-12-18T11:35:19;100809.00;;;4.38;16.92
53659;BME280;41524;35.624;139.698;2022-12-18T11:40:18;100821.00;;;4.89;17.58
53659;BME280;41524;35.624;139.698;2022-12-18T11:45:27;100818.00;;;5.28;17.10
53659;BME280;41524;35.624;139.698;2022-12-18T11:50:20;100831.00;;;4.24;18.31
53659;BME280;41524;35.624;139.698;2022-12-18T11:55:14;100823.00;;;4.09;18.52
53659;BME280;41524;35.624;139.698;2022-12-18T12:00:15;100838.00;;;5.33;17.12
53659;BME280;41524;35.624;139.698;2022-12-18T12:05:39;100850.00;;;4.68;17.22
53659;BME280;41524;35.624;139.698;2022-12-18T12:10:27;100855.00;;;4.57;17.13
53659;BME280;41524;35.624;139.698;2022-12-18T12:15:28;100862.00;;;5.30;17.03
53659;BME280;41524;35.624;139.698;2022-12-18T12:20:20;100875.00;;;4.86;16.27
53659;BME280;41524;35.624;139.698;2022-12-18T12:25:28;100881.00;;;5.47;16.38
53659;BME280;41524;35.624;139.698;2022-12-18T12:30:16;100888.00;;;4.47;16.88
53659;BME280;41524;35.624;139.698;2022-12-18T12:35:22;100894.00;;;5.21;16.83
53659;BME280;41524;35.624;139.698;2022-12-18T12:40:20;100906.00;;;4.68;17.12
53659;BME280;41524;35.624;139.698;2022-12-18T12:45:18;100917.00;;;4.56;17.33
53659;BME280;41524;35.624;139.698;2022-12-18T12:50:17;100916.00;;;4.75;17.38
53659;BME280;41524;35.624;139.698;2022-12-18T12:55:17;100924.00;;;5.96;17.26
53659;BME280;41524;35.624;139.698;2022-12-18T13:00:18;100923.00;;;6.05;17.91
53659;BME280;41524;35.624;139.698;2022-12-18T13:05:18;100933.00;;;5.78;18.49
53659;BME280;41524;35.624;139.698;2022-12-18T13:10:35;100938.00;;;4.71;19.00
53659;BME280;41524;35.624;139.698;2022-12-18T13:15:22;100944.00;;;4.93;19.95
53659;BME280;41524;35.624;139.698;2022-12-18T13:20:12;100951.00;;;4.12;21.14
53659;BME280;41524;35.624;139.698;2022-12-18T13:25:31;100957.00;;;5.21;20.23
53659;BME280;41524;35.624;139.698;2022-12-18T13:30:55;100957.00;;;6.01;21.21
53659;BME280;41524;35.624;139.698;2022-12-18T13:35:51;100963.00;;;4.82;22.49
53659;BME280;41524;35.624;139.698;2022-12-18T13:40:58;100958.00;;;4.54;21.86
53659;BME280;41524;35.624;139.698;2022-12-18T13:45:59;100961.00;;;3.71;20.89
53659;BME280;41524;35.624;139.698;2022-12-18T13:50:22;100963.00;;;3.20;21.79
53659;BME280;41524;35.624;139.698;2022-12-18T13:55:18;100975.00;;;3.73;22.52
53659;BME280;41524;35.624;139.698;2022-12-18T14:00:30;100972.00;;;2.92;22.84
53659;BME280;41524;35.624;139.698;2022-12-18T14:05:23;100978.00;;;3.55;22.53
53659;BME280;41524;35.624;139.698;2022-12-18T14:10:15;100983.00;;;3.39;22.65
53659;BME280;41524;35.624;139.698;2022-12-18T14:20:14;100983.00;;;2.51;22.95
53659;BME280;41524;35.624;139.698;2022-12-18T14:25:18;100986.00;;;2.69;23.29
53659;BME280;41524;35.624;139.698;2022-12-18T14:30:33;100987.00;;;3.06;24.20
53659;BME280;41524;35.624;139.698;2022-12-18T14:35:17;100993.00;;;3.12;24.25
53659;BME280;41524;35.624;139.698;2022-12-18T14:40:16;100994.00;;;2.84;24.63
53659;BME280;41524;35.624;139.698;2022-12-18T14:45:56;100992.00;;;2.86;25.28
53659;BME280;41524;35.624;139.698;2022-12-18T14:50:21;100992.00;;;2.64;26.25
53659;BME280;41524;35.624;139.698;2022-12-18T14:55:16;100989.00;;;2.32;27.25
53659;BME280;41524;35.624;139.698;2022-12-18T15:00:19;100990.00;;;2.87;27.30
53659;BME280;41524;35.624;139.698;2022-12-18T15:05:21;100997.00;;;2.08;29.04
53659;BME280;41524;35.624;139.698;2022-12-18T15:10:14;101011.00;;;1.96;29.64
53659;BME280;41524;35.624;139.698;2022-12-18T15:15:53;101028.00;;;1.87;30.50
53659;BME280;41524;35.624;139.698;2022-12-18T15:20:11;101027.00;;;2.88;29.77
53659;BME280;41524;35.624;139.698;2022-12-18T15:25:30;101027.00;;;1.86;31.09
53659;BME280;41524;35.624;139.698;2022-12-18T15:30:23;101027.00;;;1.18;33.25
53659;BME280;41524;35.624;139.698;2022-12-18T15:35:18;101027.00;;;1.03;32.51
53659;BME280;41524;35.624;139.698;2022-12-18T15:40:14;101035.00;;;2.08;31.50
53659;BME280;41524;35.624;139.698;2022-12-18T15:45:13;101038.00;;;1.59;31.48
53659;BME280;41524;35.624;139.698;2022-12-18T15:50:17;101038.00;;;0.82;32.41
53659;BME280;41524;35.624;139.698;2022-12-18T15:55:23;101038.00;;;1.02;32.75
53659;BME280;41524;35.624;139.698;2022-12-18T16:00:18;101048.00;;;1.16;32.09
53659;BME280;41524;35.624;139.698;2022-12-18T16:05:16;101049.00;;;0.93;32.19
53659;BME280;41524;35.624;139.698;2022-12-18T16:10:16;101059.00;;;1.24;31.72
53659;BME280;41524;35.624;139.698;2022-12-18T16:15:13;101055.00;;;1.17;31.39
53659;BME280;41524;35.624;139.698;2022-12-18T16:20:14;101068.00;;;0.49;32.30
53659;BME280;41524;35.624;139.698;2022-12-18T16:25:16;101072.00;;;0.51;32.78
53659;BME280;41524;35.624;139.698;2022-12-18T16:30:13;101067.00;;;0.68;32.36
53659;BME280;41524;35.624;139.698;2022-12-18T16:35:13;101072.00;;;0.45;32.32
53659;BME280;41524;35.624;139.698;2022-12-18T16:40:13;101072.00;;;0.96;31.94
53659;BME280;41524;35.624;139.698;2022-12-18T16:45:12;101068.00;;;1.07;31.66
53659;BME280;41524;35.624;139.698;2022-12-18T16:50:15;101076.00;;;0.26;32.67
53659;BME280;41524;35.624;139.698;2022-12-18T16:55:15;101080.00;;;0.48;32.34
53659;BME280;41524;35.624;139.698;2022-12-18T17:00:14;101072.00;;;0.02;33.38
53659;BME280;41524;35.624;139.698;2022-12-18T17:05:11;101077.00;;;-0.34;33.91
53659;BME280;41524;35.624;139.698;2022-12-18T17:10:18;101080.00;;;-0.23;34.36
53659;BME280;41524;35.624;139.698;2022-12-18T17:15:13;101079.00;;;-0.18;34.31
53659;BME280;41524;35.624;139.698;2022-12-18T17:20:11;101084.00;;;-0.39;34.39
53659;BME280;41524;35.624;139.698;2022-12-18T17:25:16;101080.00;;;1.07;33.26
53659;BME280;41524;35.624;139.698;2022-12-18T17:30:12;101085.00;;;1.08;32.77
53659;BME280;41524;35.624;139.698;2022-12-18T17:35:11;101087.00;;;0.77;33.00
53659;BME280;41524;35.624;139.698;2022-12-18T17:40:11;101100.00;;;2.04;31.72
53659;BME280;41524;35.624;139.698;2022-12-18T17:45:16;101095.00;;;0.68;32.07
53659;BME280;41524;35.624;139.698;2022-12-18T17:50:11;101107.00;;;1.58;31.89
53659;BME280;41524;35.624;139.698;2022-12-18T17:55:11;101110.00;;;1.38;32.00
53659;BME280;41524;35.624;139.698;2022-12-18T18:00:11;101113.00;;;2.16;32.09
53659;BME280;41524;35.624;139.698;2022-12-18T18:05:21;101119.00;;;1.64;31.70
53659;BME280;41524;35.624;139.698;2022-12-18T18:10:12;101124.00;;;2.06;32.07
53659;BME280;41524;35.624;139.698;2022-12-18T18:15:11;101134.00;;;1.29;31.94
53659;BME280;41524;35.624;139.698;2022-12-18T18:20:12;101135.00;;;0.79;32.09
53659;BME280;41524;35.624;139.698;2022-12-18T18:25:12;101136.00;;;0.92;33.53
53659;BME280;41524;35.624;139.698;2022-12-18T18:30:12;101139.00;;;1.26;32.85
53659;BME280;41524;35.624;139.698;2022-12-18T18:35:10;101127.00;;;1.63;31.54
53659;BME280;41524;35.624;139.698;2022-12-18T18:40:11;101134.00;;;2.64;31.05
53659;BME280;41524;35.624;139.698;2022-12-18T18:45:11;101139.00;;;1.90;31.84
53659;BME280;41524;35.624;139.698;2022-12-18T18:50:13;101138.00;;;1.63;31.38
53659;BME280;41524;35.624;139.698;2022-12-18T18:55:11;101143.00;;;1.09;32.46
53659;BME280;41524;35.624;139.698;2022-12-18T19:00:12;101136.00;;;0.96;32.09
53659;BME280;41524;35.624;139.698;2022-12-18T19:05:11;101135.00;;;1.60;31.41
53659;BME280;41524;35.624;139.698;2022-12-18T19:10:11;101133.00;;;1.54;31.52
53659;BME280;41524;35.624;139.698;2022-12-18T19:15:15;101133.00;;;1.57;31.55
53659;BME280;41524;35.624;139.698;2022-12-18T19:20:12;101130.00;;;1.83;31.51
53659;BME280;41524;35.624;139.698;2022-12-18T19:25:11;101140.00;;;0.56;32.08
53659;BME280;41524;35.624;139.698;2022-12-18T19:30:12;101141.00;;;1.51;30.86
53659;BME280;41524;35.624;139.698;2022-12-18T19:35:11;101142.00;;;2.03;31.40
53659;BME280;41524;35.624;139.698;2022-12-18T19:40:10;101151.00;;;1.69;31.29
53659;BME280;41524;35.624;139.698;2022-12-18T19:45:11;101161.00;;;2.80;30.44
53659;BME280;41524;35.624;139.698;2022-12-18T19:50:11;101161.00;;;0.69;32.31
53659;BME280;41524;35.624;139.698;2022-12-18T19:55:11;101171.00;;;0.57;32.15
53659;BME280;41524;35.624;139.698;2022-12-18T20:00:13;101172.00;;;1.53;31.56
53659;BME280;41524;35.624;139.698;2022-12-18T20:05:12;101172.00;;;1.79;31.65
53659;BME280;41524;35.624;139.698;2022-12-18T20:10:13;101173.00;;;0.42;32.68
53659;BME280;41524;35.624;139.698;2022-12-18T20:15:11;101179.00;;;1.81;31.14
53659;BME280;41524;35.624;139.698;2022-12-18T20:20:12;101186.00;;;1.23;31.50
53659;BME280;41524;35.624;139.698;2022-12-18T20:25:17;101189.00;;;1.14;32.49
53659;BME280;41524;35.624;139.698;2022-12-18T20:30:14;101192.00;;;0.16;32.90
53659;BME280;41524;35.624;139.698;2022-12-18T20:35:11;101200.00;;;0.05;33.29
53659;BME280;41524;35.624;139.698;2022-12-18T20:40:10;101210.00;;;0.86;31.81
53659;BME280;41524;35.624;139.698;2022-12-18T20:45:11;101210.00;;;0.90;31.98
53659;BME280;41524;35.624;139.698;2022-12-18T20:50:11;101220.00;;;0.54;32.12
53659;BME280;41524;35.624;139.698;2022-12-18T20:55:13;101227.00;;;1.45;31.19
53659;BME280;41524;35.624;139.698;2022-12-18T21:00:12;101238.00;;;1.65;30.95
53659;BME280;41524;35.624;139.698;2022-12-18T21:05:12;101249.00;;;1.04;32.21
53659;BME280;41524;35.624;139.698;2022-12-18T21:10:12;101260.00;;;0.41;32.19
53659;BME280;41524;35.624;139.698;2022-12-18T21:15:11;101261.00;;;1.56;31.04
53659;BME280;41524;35.624;139.698;2022-12-18T21:20:11;101272.00;;;1.80;31.10
53659;BME280;41524;35.624;139.698;2022-12-18T21:25:11;101276.00;;;1.78;30.87
53659;BME280;41524;35.624;139.698;2022-12-18T21:30:16;101282.00;;;1.34;31.80
53659;BME280;41524;35.624;139.698;2022-12-18T21:35:13;101282.00;;;1.93;31.34
53659;BME280;41524;35.624;139.698;2022-12-18T21:40:15;101287.00;;;2.87;31.17
53659;BME280;41524;35.624;139.698;2022-12-18T21:45:15;101289.00;;;1.02;32.57
53659;BME280;41524;35.624;139.698;2022-12-18T21:50:10;101291.00;;;1.31;32.10
53659;BME280;41524;35.624;139.698;2022-12-18T21:55:11;101291.00;;;1.74;31.19
53659;BME280;41524;35.624;139.698;2022-12-18T22:00:21;101293.00;;;0.61;32.59
53659;BME280;41524;35.624;139.698;2022-12-18T22:05:15;101292.00;;;2.49;31.12
53659;BME280;41524;35.624;139.698;2022-12-18T22:10:11;101296.00;;;1.72;31.19
53659;BME280;41524;35.624;139.698;2022-12-18T22:15:16;101303.00;;;1.95;33.07
53659;BME280;41524;35.624;139.698;2022-12-18T22:20:16;101313.00;;;2.29;32.55
53659;BME280;41524;35.624;139.698;2022-12-18T22:25:16;101318.00;;;1.48;31.92
53659;BME280;41524;35.624;139.698;2022-12-18T22:30:12;101330.00;;;2.02;31.61
53659;BME280;41524;35.624;139.698;2022-12-18T22:35:19;101330.00;;;1.69;32.31
53659;BME280;41524;35.624;139.698;2022-12-18T22:40:18;101324.00;;;0.73;34.47
53659;BME280;41524;35.624;139.698;2022-12-18T22:45:16;101334.00;;;2.21;33.62
53659;BME280;41524;35.624;139.698;2022-12-18T22:50:13;101321.00;;;6.27;29.21
53659;BME280;41524;35.624;139.698;2022-12-18T22:55:12;101304.00;;;12.77;21.75
53659;BME280;41524;35.624;139.698;2022-12-18T23:00:23;101317.00;;;10.97;21.85
53659;BME280;41524;35.624;139.698;2022-12-18T23:05:14;101329.00;;;11.09;21.12
53659;BME280;41524;35.624;139.698;2022-12-18T23:10:11;101320.00;;;11.88;20.11
53659;BME280;41524;35.624;139.698;2022-12-18T23:15:11;101329.00;;;12.66;18.50
53659;BME280;41524;35.624;139.698;2022-12-18T23:20:21;101328.00;;;15.27;16.89
53659;BME280;41524;35.624;139.698;2022-12-18T23:25:11;101334.00;;;15.89;16.39
53659;BME280;41524;35.624;139.698;2022-12-18T23:30:13;101340.00;;;13.07;17.98
53659;BME280;41524;35.624;139.698;2022-12-18T23:35:11;101341.00;;;12.41;17.43
53659;BME280;41524;35.624;139.698;2022-12-18T23:40:15;101339.00;;;16.40;15.20
53659;BME280;41524;35.624;139.698;2022-12-18T23:45:19;101337.00;;;13.32;17.13
53659;BME280;41524;35.624;139.698;2022-12-18T23:50:11;101339.00;;;17.63;14.67
53659;BME280;41524;35.624;139.698;2022-12-18T23:55:12;101343.00;;;17.19;15.11
